PWSweather.com
Personal Weather Stations
Station Observations

PoschiavoCH

Lat: 46.31962499999999, Lon: 10.066551000000004

Elevation: 3517

Station Type: WH 1080

http://www.meteoposchiavo.com

High Low Average
Temperature 62.0°F16.7°C 41.0°F5.0°C 46.7°F8.2°C
Dew Point 27.5°F-2.5°C 19.6°F-6.9°C 23.5°F-4.7°C
Winds 3.5 mph 5.6 kmh Calm Calm Calm WSWCalm WSW
Wind Gusts 5.8 mph9.3 kmh -- 1.0 mph1.6 kmh
Humidity 50% 20% 40%
Pressure 26.57 in899.8 mb 26.39 in893.7 mb -
Precipitation 0.00 in0.0 mm - -
Hour Temp Dew Point Humidity Winds Wind Gusts Pressure Precip Precip Rate Daily Precip Total
12:00 AM 62.0°F16.7°C 20.4°F-6.4°C 20% 1.2 mph N1.9 kmh N 1.2 mph1.9 kmh 26.54 in898.7 mb - 0.00 in0.0 mm 0.00 in0.0 mm
12:10 AM 62.0°F16.7°C 20.4°F-6.4°C 20% 1.2 mph N1.9 kmh N 1.2 mph1.9 kmh 26.54 in898.7 mb - 0.00 in0.0 mm 0.00 in0.0 mm
12:15 AM 62.0°F16.7°C 20.4°F-6.4°C 20% 1.2 mph N1.9 kmh N 1.2 mph1.9 kmh 26.54 in898.7 mb - 0.00 in0.0 mm 0.00 in0.0 mm
12:20 AM 62.0°F16.7°C 20.4°F-6.4°C 20% 1.2 mph N1.9 kmh N 1.2 mph1.9 kmh 26.54 in898.7 mb - 0.00 in0.0 mm 0.00 in0.0 mm
12:25 AM 62.0°F16.7°C 20.4°F-6.4°C 20% 1.2 mph N1.9 kmh N 1.2 mph1.9 kmh 26.54 in898.7 mb - 0.00 in0.0 mm 0.00 in0.0 mm
12:30 AM 62.0°F16.7°C 20.4°F-6.4°C 20% 1.2 mph N1.9 kmh N 1.2 mph1.9 kmh 26.54 in898.7 mb - 0.00 in0.0 mm 0.00 in0.0 mm
12:35 AM 62.0°F16.7°C 20.4°F-6.4°C 20% 1.2 mph N1.9 kmh N 1.2 mph1.9 kmh 26.54 in898.7 mb - 0.00 in0.0 mm 0.00 in0.0 mm
12:40 AM 62.0°F16.7°C 20.4°F-6.4°C 20% 1.2 mph N1.9 kmh N 1.2 mph1.9 kmh 26.54 in898.7 mb - 0.00 in0.0 mm 0.00 in0.0 mm
12:45 AM 62.0°F16.7°C 20.4°F-6.4°C 20% 1.2 mph N1.9 kmh N 1.2 mph1.9 kmh 26.54 in898.7 mb - 0.00 in0.0 mm 0.00 in0.0 mm
12:50 AM 62.0°F16.7°C 20.4°F-6.4°C 20% 1.2 mph N1.9 kmh N 1.2 mph1.9 kmh 26.54 in898.7 mb - 0.00 in0.0 mm 0.00 in0.0 mm
12:55 AM 62.0°F16.7°C 20.4°F-6.4°C 20% 1.2 mph N1.9 kmh N 1.2 mph1.9 kmh 26.54 in898.7 mb - 0.00 in0.0 mm 0.00 in0.0 mm
01:00 AM 62.0°F16.7°C 20.4°F-6.4°C 20% 1.2 mph N1.9 kmh N 1.2 mph1.9 kmh 26.54 in898.7 mb - 0.00 in0.0 mm 0.00 in0.0 mm
01:10 AM 43.0°F6.1°C 24.1°F-4.4°C 47% Calm Calm -- 26.56 in899.4 mb - 0.00 in0.0 mm 0.00 in0.0 mm
01:15 AM 42.0°F5.6°C 23.2°F-4.9°C 47% Calm Calm -- 26.55 in899.1 mb - 0.00 in0.0 mm 0.00 in0.0 mm
01:20 AM 43.0°F6.1°C 23.1°F-4.9°C 45% Calm Calm -- 26.55 in899.1 mb - 0.00 in0.0 mm 0.00 in0.0 mm
01:25 AM 43.0°F6.1°C 23.1°F-4.9°C 45% Calm Calm -- 26.57 in899.8 mb - 0.00 in0.0 mm 0.00 in0.0 mm
01:30 AM 43.0°F6.1°C 23.6°F-4.7°C 46% Calm Calm -- 26.55 in899.1 mb - 0.00 in0.0 mm 0.00 in0.0 mm
01:35 AM 42.0°F5.6°C 22.7°F-5.2°C 46% Calm Calm -- 26.56 in899.4 mb - 0.00 in0.0 mm 0.00 in0.0 mm
01:40 AM 42.0°F5.6°C 24.7°F-4.1°C 50% Calm Calm -- 26.56 in899.4 mb - 0.00 in0.0 mm 0.00 in0.0 mm
01:45 AM 42.0°F5.6°C 23.2°F-4.9°C 47% Calm Calm -- 26.56 in899.4 mb - 0.00 in0.0 mm 0.00 in0.0 mm
01:50 AM 43.0°F6.1°C 25.1°F-3.8°C 49% Calm Calm -- 26.55 in899.1 mb - 0.00 in0.0 mm 0.00 in0.0 mm
01:55 AM 43.0°F6.1°C 25.1°F-3.8°C 49% Calm Calm -- 26.56 in899.4 mb - 0.00 in0.0 mm 0.00 in0.0 mm
02:00 AM 42.3°F5.7°C 24.0°F-4.4°C 48% Calm Calm -- 26.56 in899.4 mb - 0.00 in0.0 mm 0.00 in0.0 mm
02:10 AM 44.0°F6.7°C 23.5°F-4.7°C 44% Calm Calm -- 26.55 in899.1 mb - 0.00 in0.0 mm 0.00 in0.0 mm
02:15 AM 44.0°F6.7°C 24.0°F-4.4°C 45% Calm Calm -- 26.56 in899.4 mb - 0.00 in0.0 mm 0.00 in0.0 mm
02:20 AM 45.0°F7.2°C 23.8°F-4.6°C 43% Calm Calm -- 26.56 in899.4 mb - 0.00 in0.0 mm 0.00 in0.0 mm
02:25 AM 44.0°F6.7°C 24.5°F-4.2°C 46% Calm Calm -- 26.56 in899.4 mb - 0.00 in0.0 mm 0.00 in0.0 mm
02:30 AM 43.0°F6.1°C 23.1°F-4.9°C 45% Calm Calm -- 26.55 in899.1 mb - 0.00 in0.0 mm 0.00 in0.0 mm
02:35 AM 44.0°F6.7°C 24.5°F-4.2°C 46% Calm Calm -- 26.56 in899.4 mb - 0.00 in0.0 mm 0.00 in0.0 mm
02:40 AM 44.0°F6.7°C 23.5°F-4.7°C 44% Calm Calm -- 26.56 in899.4 mb - 0.00 in0.0 mm 0.00 in0.0 mm
02:45 AM 45.0°F7.2°C 23.8°F-4.6°C 43% Calm Calm -- 26.55 in899.1 mb - 0.00 in0.0 mm 0.00 in0.0 mm
02:50 AM 45.6°F7.6°C 24.4°F-4.2°C 43% Calm Calm -- 26.55 in899.1 mb - 0.00 in0.0 mm 0.00 in0.0 mm
02:55 AM 46.0°F7.8°C 24.7°F-4.1°C 43% Calm Calm -- 26.55 in899.1 mb - 0.00 in0.0 mm 0.00 in0.0 mm
03:00 AM 45.0°F7.2°C 23.8°F-4.6°C 43% Calm Calm -- 26.55 in899.1 mb - 0.00 in0.0 mm 0.00 in0.0 mm
03:10 AM 44.0°F6.7°C 24.5°F-4.2°C 46% Calm Calm -- 26.55 in899.1 mb - 0.00 in0.0 mm 0.00 in0.0 mm
03:15 AM 44.0°F6.7°C 24.0°F-4.4°C 45% Calm Calm 1.2 mph1.9 kmh 26.55 in899.1 mb - 0.00 in0.0 mm 0.00 in0.0 mm
03:20 AM 43.0°F6.1°C 24.6°F-4.1°C 48% Calm Calm -- 26.55 in899.1 mb - 0.00 in0.0 mm 0.00 in0.0 mm
03:25 AM 44.0°F6.7°C 23.5°F-4.7°C 44% Calm Calm 1.2 mph1.9 kmh 26.55 in899.1 mb - 0.00 in0.0 mm 0.00 in0.0 mm
03:30 AM 44.0°F6.7°C 23.5°F-4.7°C 44% Calm Calm -- 26.55 in899.1 mb - 0.00 in0.0 mm 0.00 in0.0 mm
03:35 AM 45.0°F7.2°C 25.4°F-3.7°C 46% Calm Calm -- 26.55 in899.1 mb - 0.00 in0.0 mm 0.00 in0.0 mm
03:40 AM 44.3°F6.8°C 25.3°F-3.7°C 47% Calm Calm -- 26.54 in898.7 mb - 0.00 in0.0 mm 0.00 in0.0 mm
03:45 AM 43.8°F6.6°C 24.8°F-4.0°C 47% Calm Calm -- 26.54 in898.7 mb - 0.00 in0.0 mm 0.00 in0.0 mm
03:50 AM 43.0°F6.1°C 24.1°F-4.4°C 47% Calm Calm -- 26.54 in898.7 mb - 0.00 in0.0 mm 0.00 in0.0 mm
03:55 AM 43.0°F6.1°C 24.6°F-4.1°C 48% Calm Calm -- 26.54 in898.7 mb - 0.00 in0.0 mm 0.00 in0.0 mm
04:00 AM 42.0°F5.6°C 22.7°F-5.2°C 46% Calm Calm -- 26.53 in898.4 mb - 0.00 in0.0 mm 0.00 in0.0 mm
04:10 AM 43.0°F6.1°C 23.6°F-4.7°C 46% Calm Calm -- 26.54 in898.7 mb - 0.00 in0.0 mm 0.00 in0.0 mm
04:15 AM 44.0°F6.7°C 23.5°F-4.7°C 44% Calm Calm -- 26.53 in898.4 mb - 0.00 in0.0 mm 0.00 in0.0 mm
04:20 AM 44.0°F6.7°C 25.0°F-3.9°C 47% Calm Calm -- 26.54 in898.7 mb - 0.00 in0.0 mm 0.00 in0.0 mm
04:25 AM 43.0°F6.1°C 24.6°F-4.1°C 48% Calm Calm -- 26.54 in898.7 mb - 0.00 in0.0 mm 0.00 in0.0 mm
04:30 AM 42.2°F5.7°C 23.9°F-4.5°C 48% Calm Calm -- 26.54 in898.7 mb - 0.00 in0.0 mm 0.00 in0.0 mm
04:35 AM 42.0°F5.6°C 23.2°F-4.9°C 47% Calm Calm -- 26.54 in898.7 mb - 0.00 in0.0 mm 0.00 in0.0 mm
04:40 AM 42.0°F5.6°C 22.7°F-5.2°C 46% Calm Calm -- 26.53 in898.4 mb - 0.00 in0.0 mm 0.00 in0.0 mm
04:45 AM 43.0°F6.1°C 23.1°F-4.9°C 45% Calm Calm -- 26.53 in898.4 mb - 0.00 in0.0 mm 0.00 in0.0 mm
04:50 AM 43.0°F6.1°C 23.1°F-4.9°C 45% Calm Calm -- 26.53 in898.4 mb - 0.00 in0.0 mm 0.00 in0.0 mm
04:55 AM 42.0°F5.6°C 22.7°F-5.2°C 46% Calm Calm -- 26.53 in898.4 mb - 0.00 in0.0 mm 0.00 in0.0 mm
05:00 AM 42.0°F5.6°C 22.7°F-5.2°C 46% Calm Calm -- 26.53 in898.4 mb - 0.00 in0.0 mm 0.00 in0.0 mm
05:10 AM 42.0°F5.6°C 23.2°F-4.9°C 47% Calm Calm -- 26.53 in898.4 mb - 0.00 in0.0 mm 0.00 in0.0 mm
05:15 AM 42.0°F5.6°C 22.7°F-5.2°C 46% Calm Calm -- 26.53 in898.4 mb - 0.00 in0.0 mm 0.00 in0.0 mm
05:20 AM 42.0°F5.6°C 23.2°F-4.9°C 47% Calm Calm -- 26.53 in898.4 mb - 0.00 in0.0 mm 0.00 in0.0 mm
05:25 AM 41.6°F5.3°C 22.9°F-5.1°C 47% Calm Calm -- 26.53 in898.4 mb - 0.00 in0.0 mm 0.00 in0.0 mm
05:30 AM 41.0°F5.0°C 22.8°F-5.1°C 48% Calm Calm -- 26.53 in898.4 mb - 0.00 in0.0 mm 0.00 in0.0 mm
05:35 AM 42.0°F5.6°C 21.6°F-5.8°C 44% Calm Calm -- 26.53 in898.4 mb - 0.00 in0.0 mm 0.00 in0.0 mm
05:40 AM 43.0°F6.1°C 22.0°F-5.6°C 43% 1.2 mph E1.9 kmh E 2.3 mph3.7 kmh 26.52 in898.1 mb - 0.00 in0.0 mm 0.00 in0.0 mm
05:45 AM 44.0°F6.7°C 22.4°F-5.3°C 42% Calm Calm -- 26.52 in898.1 mb - 0.00 in0.0 mm 0.00 in0.0 mm
05:50 AM 44.0°F6.7°C 22.9°F-5.1°C 43% Calm Calm -- 26.51 in897.7 mb - 0.00 in0.0 mm 0.00 in0.0 mm
05:55 AM 43.0°F6.1°C 22.0°F-5.6°C 43% Calm Calm -- 26.51 in897.7 mb - 0.00 in0.0 mm 0.00 in0.0 mm
06:00 AM 43.0°F6.1°C 22.0°F-5.6°C 43% Calm Calm -- 26.51 in897.7 mb - 0.00 in0.0 mm 0.00 in0.0 mm
06:10 AM 44.0°F6.7°C 21.8°F-5.7°C 41% Calm Calm -- 26.51 in897.7 mb - 0.00 in0.0 mm 0.00 in0.0 mm
06:15 AM 44.0°F6.7°C 21.2°F-6.0°C 40% Calm Calm -- 26.51 in897.7 mb - 0.00 in0.0 mm 0.00 in0.0 mm
06:20 AM 44.0°F6.7°C 20.6°F-6.3°C 39% Calm Calm -- 26.50 in897.4 mb - 0.00 in0.0 mm 0.00 in0.0 mm
06:25 AM 44.0°F6.7°C 21.8°F-5.7°C 41% Calm Calm -- 26.50 in897.4 mb - 0.00 in0.0 mm 0.00 in0.0 mm
06:30 AM 44.0°F6.7°C 20.6°F-6.3°C 39% Calm Calm -- 26.50 in897.4 mb - 0.00 in0.0 mm 0.00 in0.0 mm
06:35 AM 45.0°F7.2°C 20.3°F-6.5°C 37% Calm Calm -- 26.50 in897.4 mb - 0.00 in0.0 mm 0.00 in0.0 mm
06:40 AM 45.0°F7.2°C 20.3°F-6.5°C 37% 1.2 mph WNW1.9 kmh WNW 1.2 mph1.9 kmh 26.50 in897.4 mb - 0.00 in0.0 mm 0.00 in0.0 mm
06:45 AM 45.0°F7.2°C 19.6°F-6.9°C 36% 1.2 mph WNW1.9 kmh WNW 3.5 mph5.6 kmh 26.50 in897.4 mb - 0.00 in0.0 mm 0.00 in0.0 mm
06:50 AM 45.0°F7.2°C 20.3°F-6.5°C 37% Calm Calm 1.2 mph1.9 kmh 26.50 in897.4 mb - 0.00 in0.0 mm 0.00 in0.0 mm
06:55 AM 45.0°F7.2°C 20.3°F-6.5°C 37% Calm Calm 1.2 mph1.9 kmh 26.50 in897.4 mb - 0.00 in0.0 mm 0.00 in0.0 mm
07:00 AM 45.0°F7.2°C 20.9°F-6.2°C 38% Calm Calm 1.2 mph1.9 kmh 26.50 in897.4 mb - 0.00 in0.0 mm 0.00 in0.0 mm
07:10 AM 45.0°F7.2°C 22.1°F-5.5°C 40% Calm Calm -- 26.50 in897.4 mb - 0.00 in0.0 mm 0.00 in0.0 mm
07:15 AM 44.0°F6.7°C 21.2°F-6.0°C 40% Calm Calm -- 26.50 in897.4 mb - 0.00 in0.0 mm 0.00 in0.0 mm
07:20 AM 43.0°F6.1°C 22.0°F-5.6°C 43% Calm Calm -- 26.50 in897.4 mb - 0.00 in0.0 mm 0.00 in0.0 mm
07:25 AM 44.0°F6.7°C 21.8°F-5.7°C 41% Calm Calm -- 26.50 in897.4 mb - 0.00 in0.0 mm 0.00 in0.0 mm
07:30 AM 43.0°F6.1°C 21.4°F-5.9°C 42% Calm Calm -- 26.51 in897.7 mb - 0.00 in0.0 mm 0.00 in0.0 mm
07:35 AM 43.0°F6.1°C 21.4°F-5.9°C 42% Calm Calm -- 26.51 in897.7 mb - 0.00 in0.0 mm 0.00 in0.0 mm
07:40 AM 43.0°F6.1°C 20.3°F-6.5°C 40% Calm Calm -- 26.51 in897.7 mb - 0.00 in0.0 mm 0.00 in0.0 mm
07:45 AM 43.0°F6.1°C 22.0°F-5.6°C 43% Calm Calm -- 26.51 in897.7 mb - 0.00 in0.0 mm 0.00 in0.0 mm
07:50 AM 43.0°F6.1°C 22.5°F-5.3°C 44% Calm Calm -- 26.51 in897.7 mb - 0.00 in0.0 mm 0.00 in0.0 mm
07:55 AM 43.0°F6.1°C 22.5°F-5.3°C 44% Calm Calm -- 26.51 in897.7 mb - 0.00 in0.0 mm 0.00 in0.0 mm
08:00 AM 42.0°F5.6°C 21.1°F-6.1°C 43% Calm Calm -- 26.51 in897.7 mb - 0.00 in0.0 mm 0.00 in0.0 mm
08:10 AM 42.0°F5.6°C 22.7°F-5.2°C 46% Calm Calm -- 26.52 in898.1 mb - 0.00 in0.0 mm 0.00 in0.0 mm
08:15 AM 42.0°F5.6°C 20.0°F-6.7°C 41% Calm Calm 1.2 mph1.9 kmh 26.51 in897.7 mb - 0.00 in0.0 mm 0.00 in0.0 mm
08:20 AM 42.0°F5.6°C 21.6°F-5.8°C 44% Calm Calm -- 26.51 in897.7 mb - 0.00 in0.0 mm 0.00 in0.0 mm
08:25 AM 42.0°F5.6°C 22.7°F-5.2°C 46% Calm Calm -- 26.51 in897.7 mb - 0.00 in0.0 mm 0.00 in0.0 mm
08:30 AM 42.0°F5.6°C 22.7°F-5.2°C 46% Calm Calm -- 26.51 in897.7 mb - 0.00 in0.0 mm 0.00 in0.0 mm
08:35 AM 42.0°F5.6°C 22.7°F-5.2°C 46% Calm Calm -- 26.51 in897.7 mb - 0.00 in0.0 mm 0.00 in0.0 mm
08:40 AM 42.0°F5.6°C 22.2°F-5.4°C 45% Calm Calm -- 26.51 in897.7 mb - 0.00 in0.0 mm 0.00 in0.0 mm
08:45 AM 42.0°F5.6°C 22.2°F-5.4°C 45% Calm Calm -- 26.51 in897.7 mb - 0.00 in0.0 mm 0.00 in0.0 mm
08:50 AM 42.0°F5.6°C 22.2°F-5.4°C 45% Calm Calm -- 26.51 in897.7 mb - 0.00 in0.0 mm 0.00 in0.0 mm
08:55 AM 42.0°F5.6°C 23.7°F-4.6°C 48% Calm Calm -- 26.50 in897.4 mb - 0.00 in0.0 mm 0.00 in0.0 mm
09:00 AM 42.0°F5.6°C 22.2°F-5.4°C 45% Calm Calm -- 26.51 in897.7 mb - 0.00 in0.0 mm 0.00 in0.0 mm
09:10 AM 45.0°F7.2°C 21.5°F-5.8°C 39% Calm Calm 1.2 mph1.9 kmh 26.49 in897.1 mb - 0.00 in0.0 mm 0.00 in0.0 mm
09:15 AM 46.0°F7.8°C 20.5°F-6.4°C 36% Calm Calm 1.2 mph1.9 kmh 26.49 in897.1 mb - 0.00 in0.0 mm 0.00 in0.0 mm
09:20 AM 46.4°F8.0°C 20.9°F-6.2°C 36% Calm Calm 1.2 mph1.9 kmh 26.49 in897.1 mb - 0.00 in0.0 mm 0.00 in0.0 mm
09:25 AM 47.0°F8.3°C 21.4°F-5.9°C 36% Calm Calm -- 26.49 in897.1 mb - 0.00 in0.0 mm 0.00 in0.0 mm
09:30 AM 48.0°F8.9°C 22.3°F-5.4°C 36% Calm Calm -- 26.48 in896.7 mb - 0.00 in0.0 mm 0.00 in0.0 mm
09:35 AM 48.0°F8.9°C 22.9°F-5.1°C 37% Calm Calm -- 26.47 in896.4 mb - 0.00 in0.0 mm 0.00 in0.0 mm
09:40 AM 49.0°F9.4°C 25.7°F-3.5°C 40% Calm Calm -- 26.47 in896.4 mb - 0.00 in0.0 mm 0.00 in0.0 mm
09:45 AM 49.0°F9.4°C 23.8°F-4.6°C 37% Calm Calm -- 26.47 in896.4 mb - 0.00 in0.0 mm 0.00 in0.0 mm
09:50 AM 48.0°F8.9°C 25.4°F-3.7°C 41% 3.5 mph W5.6 kmh W 3.5 mph5.6 kmh 26.46 in896.0 mb - 0.00 in0.0 mm 0.00 in0.0 mm
09:55 AM 46.0°F7.8°C 23.0°F-5.0°C 40% 1.2 mph WNW1.9 kmh WNW 2.3 mph3.7 kmh 26.46 in896.0 mb - 0.00 in0.0 mm 0.00 in0.0 mm
10:00 AM 47.0°F8.3°C 24.5°F-4.2°C 41% 1.2 mph N1.9 kmh N 2.3 mph3.7 kmh 26.46 in896.0 mb - 0.00 in0.0 mm 0.00 in0.0 mm
10:10 AM 47.0°F8.3°C 23.9°F-4.5°C 40% 1.2 mph NW1.9 kmh NW 2.3 mph3.7 kmh 26.46 in896.0 mb - 0.00 in0.0 mm 0.00 in0.0 mm
10:15 AM 47.0°F8.3°C 24.5°F-4.2°C 41% 1.2 mph NW1.9 kmh NW 1.2 mph1.9 kmh 26.46 in896.0 mb - 0.00 in0.0 mm 0.00 in0.0 mm
10:20 AM 47.0°F8.3°C 24.5°F-4.2°C 41% Calm Calm 1.2 mph1.9 kmh 26.45 in895.7 mb - 0.00 in0.0 mm 0.00 in0.0 mm
10:25 AM 48.0°F8.9°C 26.0°F-3.3°C 42% Calm Calm -- 26.45 in895.7 mb - 0.00 in0.0 mm 0.00 in0.0 mm
10:30 AM 48.0°F8.9°C 25.4°F-3.7°C 41% Calm Calm -- 26.46 in896.0 mb - 0.00 in0.0 mm 0.00 in0.0 mm
10:35 AM 48.0°F8.9°C 24.8°F-4.0°C 40% Calm Calm -- 26.46 in896.0 mb - 0.00 in0.0 mm 0.00 in0.0 mm
10:40 AM 51.0°F10.6°C 22.9°F-5.1°C 33% 1.2 mph NW1.9 kmh NW 1.2 mph1.9 kmh 26.46 in896.0 mb - 0.00 in0.0 mm 0.00 in0.0 mm
10:45 AM 55.0°F12.8°C 25.6°F-3.6°C 32% Calm Calm -- 26.45 in895.7 mb - 0.00 in0.0 mm 0.00 in0.0 mm
10:50 AM 56.3°F13.5°C 27.5°F-2.5°C 33% Calm Calm -- 26.46 in896.0 mb - 0.00 in0.0 mm 0.00 in0.0 mm
10:55 AM 57.2°F14.0°C 27.5°F-2.5°C 32% Calm Calm -- 26.46 in896.0 mb - 0.00 in0.0 mm 0.00 in0.0 mm
11:00 AM 59.0°F15.0°C 25.0°F-3.9°C 27% Calm Calm -- 26.45 in895.7 mb - 0.00 in0.0 mm 0.00 in0.0 mm
11:10 AM 52.0°F11.1°C 23.8°F-4.6°C 33% Calm Calm -- 26.44 in895.4 mb - 0.00 in0.0 mm 0.00 in0.0 mm
11:15 AM 51.0°F10.6°C 23.6°F-4.7°C 34% 1.2 mph W1.9 kmh W 2.3 mph3.7 kmh 26.44 in895.4 mb - 0.00 in0.0 mm 0.00 in0.0 mm
11:20 AM 51.0°F10.6°C 25.0°F-3.9°C 36% Calm Calm -- 26.43 in895.0 mb - 0.00 in0.0 mm 0.00 in0.0 mm
11:25 AM 51.0°F10.6°C 23.6°F-4.7°C 34% Calm Calm 1.2 mph1.9 kmh 26.44 in895.4 mb - 0.00 in0.0 mm 0.00 in0.0 mm
11:30 AM 52.0°F11.1°C 21.5°F-5.8°C 30% Calm Calm 1.2 mph1.9 kmh 26.44 in895.4 mb - 0.00 in0.0 mm 0.00 in0.0 mm
11:35 AM 52.0°F11.1°C 22.3°F-5.4°C 31% Calm Calm -- 26.43 in895.0 mb - 0.00 in0.0 mm 0.00 in0.0 mm
11:40 AM 52.8°F11.6°C 23.0°F-5.0°C 31% Calm Calm -- 26.43 in895.0 mb - 0.00 in0.0 mm 0.00 in0.0 mm
11:45 AM 52.0°F11.1°C 23.8°F-4.6°C 33% Calm Calm -- 26.43 in895.0 mb - 0.00 in0.0 mm 0.00 in0.0 mm
11:50 AM 52.0°F11.1°C 22.3°F-5.4°C 31% Calm Calm -- 26.43 in895.0 mb - 0.00 in0.0 mm 0.00 in0.0 mm
11:55 AM 52.0°F11.1°C 22.3°F-5.4°C 31% 1.2 mph NW1.9 kmh NW 2.3 mph3.7 kmh 26.44 in895.4 mb - 0.00 in0.0 mm 0.00 in0.0 mm
12:00 PM 52.0°F11.1°C 22.3°F-5.4°C 31% Calm Calm 1.2 mph1.9 kmh 26.44 in895.4 mb - 0.00 in0.0 mm 0.00 in0.0 mm
12:10 PM 51.0°F10.6°C 24.3°F-4.3°C 35% 1.2 mph WNW1.9 kmh WNW 3.5 mph5.6 kmh 26.44 in895.4 mb - 0.00 in0.0 mm 0.00 in0.0 mm
12:15 PM 51.0°F10.6°C 25.0°F-3.9°C 36% Calm Calm -- 26.45 in895.7 mb - 0.00 in0.0 mm 0.00 in0.0 mm
12:20 PM 52.0°F11.1°C 25.8°F-3.4°C 36% Calm Calm -- 26.44 in895.4 mb - 0.00 in0.0 mm 0.00 in0.0 mm
12:25 PM 53.0°F11.7°C 25.3°F-3.7°C 34% Calm Calm 2.3 mph3.7 kmh 26.43 in895.0 mb - 0.00 in0.0 mm 0.00 in0.0 mm
12:30 PM 54.0°F12.2°C 25.5°F-3.6°C 33% Calm Calm -- 26.43 in895.0 mb - 0.00 in0.0 mm 0.00 in0.0 mm
12:35 PM 54.9°F12.7°C 24.0°F-4.4°C 30% 1.2 mph NW1.9 kmh NW 2.3 mph3.7 kmh 26.43 in895.0 mb - 0.00 in0.0 mm 0.00 in0.0 mm
12:40 PM 56.0°F13.3°C 23.3°F-4.8°C 28% Calm Calm 1.2 mph1.9 kmh 26.42 in894.7 mb - 0.00 in0.0 mm 0.00 in0.0 mm
12:45 PM 57.0°F13.9°C 25.0°F-3.9°C 29% Calm Calm -- 26.42 in894.7 mb - 0.00 in0.0 mm 0.00 in0.0 mm
12:50 PM 59.0°F15.0°C 25.0°F-3.9°C 27% Calm Calm -- 26.41 in894.3 mb - 0.00 in0.0 mm 0.00 in0.0 mm
12:55 PM 60.6°F15.9°C 25.5°F-3.6°C 26% Calm Calm 1.2 mph1.9 kmh 26.41 in894.3 mb - 0.00 in0.0 mm 0.00 in0.0 mm
01:00 PM 62.0°F16.7°C 26.7°F-2.9°C 26% Calm Calm 1.2 mph1.9 kmh 26.40 in894.0 mb - 0.00 in0.0 mm 0.00 in0.0 mm
01:10 PM 62.0°F16.7°C 26.7°F-2.9°C 26% Calm Calm 1.2 mph1.9 kmh 26.40 in894.0 mb - 0.00 in0.0 mm 0.00 in0.0 mm
01:15 PM 60.7°F15.9°C 26.5°F-3.1°C 27% 1.2 mph NE1.9 kmh NE 3.5 mph5.6 kmh 26.40 in894.0 mb - 0.00 in0.0 mm 0.00 in0.0 mm
01:20 PM 59.0°F15.0°C 24.1°F-4.4°C 26% 2.3 mph W3.7 kmh W 3.5 mph5.6 kmh 26.39 in893.7 mb - 0.00 in0.0 mm 0.00 in0.0 mm
01:25 PM 58.0°F14.4°C 24.2°F-4.3°C 27% Calm Calm 1.2 mph1.9 kmh 26.39 in893.7 mb - 0.00 in0.0 mm 0.00 in0.0 mm
01:30 PM 57.0°F13.9°C 25.0°F-3.9°C 29% Calm Calm -- 26.40 in894.0 mb - 0.00 in0.0 mm 0.00 in0.0 mm
01:35 PM 57.0°F13.9°C 23.3°F-4.8°C 27% 2.3 mph WNW3.7 kmh WNW 3.5 mph5.6 kmh 26.41 in894.3 mb - 0.00 in0.0 mm 0.00 in0.0 mm
01:40 PM 56.0°F13.3°C 24.2°F-4.3°C 29% Calm Calm 1.2 mph1.9 kmh 26.39 in893.7 mb - 0.00 in0.0 mm 0.00 in0.0 mm
01:45 PM 55.0°F12.8°C 23.3°F-4.8°C 29% Calm Calm 1.2 mph1.9 kmh 26.40 in894.0 mb - 0.00 in0.0 mm 0.00 in0.0 mm
01:50 PM 54.0°F12.2°C 24.0°F-4.4°C 31% 1.2 mph NE1.9 kmh NE 1.2 mph1.9 kmh 26.40 in894.0 mb - 0.00 in0.0 mm 0.00 in0.0 mm
01:55 PM 54.0°F12.2°C 23.2°F-4.9°C 30% Calm Calm -- 26.39 in893.7 mb - 0.00 in0.0 mm 0.00 in0.0 mm
02:00 PM 54.0°F12.2°C 23.2°F-4.9°C 30% Calm Calm 1.2 mph1.9 kmh 26.40 in894.0 mb - 0.00 in0.0 mm 0.00 in0.0 mm
02:10 PM 54.0°F12.2°C 23.2°F-4.9°C 30% Calm Calm -- 26.40 in894.0 mb - 0.00 in0.0 mm 0.00 in0.0 mm
02:15 PM 53.0°F11.7°C 22.4°F-5.3°C 30% Calm Calm -- 26.39 in893.7 mb - 0.00 in0.0 mm 0.00 in0.0 mm
02:20 PM 53.0°F11.7°C 23.9°F-4.5°C 32% Calm Calm -- 26.40 in894.0 mb - 0.00 in0.0 mm 0.00 in0.0 mm
02:25 PM 53.0°F11.7°C 23.9°F-4.5°C 32% Calm Calm 3.5 mph5.6 kmh 26.40 in894.0 mb - 0.00 in0.0 mm 0.00 in0.0 mm
02:30 PM 53.0°F11.7°C 23.9°F-4.5°C 32% Calm Calm -- 26.39 in893.7 mb - 0.00 in0.0 mm 0.00 in0.0 mm
02:35 PM 52.0°F11.1°C 24.5°F-4.2°C 34% Calm Calm 1.2 mph1.9 kmh 26.40 in894.0 mb - 0.00 in0.0 mm 0.00 in0.0 mm
02:40 PM 52.0°F11.1°C 23.0°F-5.0°C 32% 3.5 mph W5.6 kmh W 3.5 mph5.6 kmh 26.40 in894.0 mb - 0.00 in0.0 mm 0.00 in0.0 mm
02:45 PM 52.0°F11.1°C 23.0°F-5.0°C 32% Calm Calm 1.2 mph1.9 kmh 26.40 in894.0 mb - 0.00 in0.0 mm 0.00 in0.0 mm
02:50 PM 52.0°F11.1°C 23.0°F-5.0°C 32% Calm Calm 2.3 mph3.7 kmh 26.40 in894.0 mb - 0.00 in0.0 mm 0.00 in0.0 mm
02:55 PM 52.0°F11.1°C 23.8°F-4.6°C 33% 2.3 mph NE3.7 kmh NE 2.3 mph3.7 kmh 26.41 in894.3 mb - 0.00 in0.0 mm 0.00 in0.0 mm
03:00 PM 52.0°F11.1°C 25.2°F-3.8°C 35% 1.2 mph NNE1.9 kmh NNE 1.2 mph1.9 kmh 26.41 in894.3 mb - 0.00 in0.0 mm 0.00 in0.0 mm
03:10 PM 51.1°F10.6°C 23.7°F-4.6°C 34% Calm Calm 2.3 mph3.7 kmh 26.41 in894.3 mb - 0.00 in0.0 mm 0.00 in0.0 mm
03:15 PM 51.0°F10.6°C 25.6°F-3.6°C 37% Calm Calm 1.2 mph1.9 kmh 26.40 in894.0 mb - 0.00 in0.0 mm 0.00 in0.0 mm
03:20 PM 51.0°F10.6°C 26.3°F-3.2°C 38% Calm Calm -- 26.41 in894.3 mb - 0.00 in0.0 mm 0.00 in0.0 mm
03:25 PM 51.0°F10.6°C 25.0°F-3.9°C 36% Calm Calm 1.2 mph1.9 kmh 26.41 in894.3 mb - 0.00 in0.0 mm 0.00 in0.0 mm
03:30 PM 51.0°F10.6°C 24.3°F-4.3°C 35% 1.2 mph NE1.9 kmh NE 2.3 mph3.7 kmh 26.41 in894.3 mb - 0.00 in0.0 mm 0.00 in0.0 mm
03:35 PM 51.0°F10.6°C 25.0°F-3.9°C 36% 1.2 mph NE1.9 kmh NE 2.3 mph3.7 kmh 26.41 in894.3 mb - 0.00 in0.0 mm 0.00 in0.0 mm
03:40 PM 50.0°F10.0°C 26.0°F-3.3°C 39% 1.2 mph NE1.9 kmh NE 2.3 mph3.7 kmh 26.42 in894.7 mb - 0.00 in0.0 mm 0.00 in0.0 mm
03:45 PM 49.0°F9.4°C 25.7°F-3.5°C 40% 2.3 mph WSW3.7 kmh WSW 3.5 mph5.6 kmh 26.42 in894.7 mb - 0.00 in0.0 mm 0.00 in0.0 mm
03:50 PM 49.0°F9.4°C 25.1°F-3.8°C 39% Calm Calm 1.2 mph1.9 kmh 26.42 in894.7 mb - 0.00 in0.0 mm 0.00 in0.0 mm
03:55 PM 50.0°F10.0°C 26.6°F-3.0°C 40% Calm Calm -- 26.43 in895.0 mb - 0.00 in0.0 mm 0.00 in0.0 mm
04:00 PM 49.6°F9.8°C 26.2°F-3.2°C 40% Calm Calm -- 26.42 in894.7 mb - 0.00 in0.0 mm 0.00 in0.0 mm
04:10 PM 49.0°F9.4°C 25.7°F-3.5°C 40% Calm Calm -- 26.43 in895.0 mb - 0.00 in0.0 mm 0.00 in0.0 mm
04:15 PM 49.0°F9.4°C 25.1°F-3.8°C 39% Calm Calm 1.2 mph1.9 kmh 26.42 in894.7 mb - 0.00 in0.0 mm 0.00 in0.0 mm
04:20 PM 49.0°F9.4°C 24.5°F-4.2°C 38% 1.2 mph NNE1.9 kmh NNE 2.3 mph3.7 kmh 26.42 in894.7 mb - 0.00 in0.0 mm 0.00 in0.0 mm
04:25 PM 49.0°F9.4°C 23.8°F-4.6°C 37% 1.2 mph NNW1.9 kmh NNW 1.2 mph1.9 kmh 26.42 in894.7 mb - 0.00 in0.0 mm 0.00 in0.0 mm
04:30 PM 48.1°F8.9°C 22.3°F-5.4°C 36% Calm Calm -- 26.43 in895.0 mb - 0.00 in0.0 mm 0.00 in0.0 mm
04:35 PM 48.0°F8.9°C 23.6°F-4.7°C 38% 2.3 mph W3.7 kmh W 5.8 mph9.3 kmh 26.42 in894.7 mb - 0.00 in0.0 mm 0.00 in0.0 mm
04:40 PM 48.0°F8.9°C 24.2°F-4.3°C 39% 1.2 mph NE1.9 kmh NE 1.2 mph1.9 kmh 26.43 in895.0 mb - 0.00 in0.0 mm 0.00 in0.0 mm
04:45 PM 48.0°F8.9°C 24.2°F-4.3°C 39% 1.2 mph N1.9 kmh N 2.3 mph3.7 kmh 26.43 in895.0 mb - 0.00 in0.0 mm 0.00 in0.0 mm
04:50 PM 48.0°F8.9°C 24.8°F-4.0°C 40% Calm Calm 1.2 mph1.9 kmh 26.43 in895.0 mb - 0.00 in0.0 mm 0.00 in0.0 mm
04:55 PM 48.0°F8.9°C 23.6°F-4.7°C 38% Calm Calm -- 26.44 in895.4 mb - 0.00 in0.0 mm 0.00 in0.0 mm
05:00 PM 48.0°F8.9°C 23.6°F-4.7°C 38% Calm Calm -- 26.44 in895.4 mb - 0.00 in0.0 mm 0.00 in0.0 mm
05:10 PM 48.0°F8.9°C 22.9°F-5.1°C 37% Calm Calm 2.3 mph3.7 kmh 26.44 in895.4 mb - 0.00 in0.0 mm 0.00 in0.0 mm
05:15 PM 48.0°F8.9°C 23.6°F-4.7°C 38% Calm Calm 1.2 mph1.9 kmh 26.44 in895.4 mb - 0.00 in0.0 mm 0.00 in0.0 mm
05:20 PM 48.0°F8.9°C 23.6°F-4.7°C 38% Calm Calm -- 26.44 in895.4 mb - 0.00 in0.0 mm 0.00 in0.0 mm
05:25 PM 47.0°F8.3°C 23.9°F-4.5°C 40% 1.2 mph NW1.9 kmh NW 2.3 mph3.7 kmh 26.44 in895.4 mb - 0.00 in0.0 mm 0.00 in0.0 mm
05:30 PM 47.0°F8.3°C 25.1°F-3.8°C 42% 2.3 mph NW3.7 kmh NW 2.3 mph3.7 kmh 26.44 in895.4 mb - 0.00 in0.0 mm 0.00 in0.0 mm
05:35 PM 46.5°F8.1°C 24.1°F-4.4°C 41% 1.2 mph NW1.9 kmh NW 3.5 mph5.6 kmh 26.44 in895.4 mb - 0.00 in0.0 mm 0.00 in0.0 mm
05:40 PM 47.0°F8.3°C 24.5°F-4.2°C 41% Calm Calm 1.2 mph1.9 kmh 26.44 in895.4 mb - 0.00 in0.0 mm 0.00 in0.0 mm
05:45 PM 46.0°F7.8°C 24.2°F-4.3°C 42% 1.2 mph NW1.9 kmh NW 1.2 mph1.9 kmh 26.45 in895.7 mb - 0.00 in0.0 mm 0.00 in0.0 mm
05:50 PM 46.0°F7.8°C 24.2°F-4.3°C 42% Calm Calm -- 26.45 in895.7 mb - 0.00 in0.0 mm 0.00 in0.0 mm
05:55 PM 46.0°F7.8°C 24.2°F-4.3°C 42% 1.2 mph NW1.9 kmh NW 2.3 mph3.7 kmh 26.45 in895.7 mb - 0.00 in0.0 mm 0.00 in0.0 mm
06:00 PM 46.0°F7.8°C 25.3°F-3.7°C 44% Calm Calm 1.2 mph1.9 kmh 26.46 in896.0 mb - 0.00 in0.0 mm 0.00 in0.0 mm
06:10 PM 46.0°F7.8°C 24.7°F-4.1°C 43% Calm Calm 1.2 mph1.9 kmh 26.46 in896.0 mb - 0.00 in0.0 mm 0.00 in0.0 mm
06:15 PM 46.0°F7.8°C 25.8°F-3.4°C 45% Calm Calm -- 26.46 in896.0 mb - 0.00 in0.0 mm 0.00 in0.0 mm
06:20 PM 45.0°F7.2°C 24.4°F-4.2°C 44% 1.2 mph NNW1.9 kmh NNW 1.2 mph1.9 kmh 26.46 in896.0 mb - 0.00 in0.0 mm 0.00 in0.0 mm
06:25 PM 45.0°F7.2°C 24.4°F-4.2°C 44% Calm Calm 1.2 mph1.9 kmh 26.47 in896.4 mb - 0.00 in0.0 mm 0.00 in0.0 mm
06:30 PM 45.0°F7.2°C 24.9°F-3.9°C 45% Calm Calm -- 26.46 in896.0 mb - 0.00 in0.0 mm 0.00 in0.0 mm
06:35 PM 45.0°F7.2°C 24.4°F-4.2°C 44% 1.2 mph NW1.9 kmh NW 2.3 mph3.7 kmh 26.47 in896.4 mb - 0.00 in0.0 mm 0.00 in0.0 mm
06:40 PM 45.0°F7.2°C 23.8°F-4.6°C 43% Calm Calm 1.2 mph1.9 kmh 26.47 in896.4 mb - 0.00 in0.0 mm 0.00 in0.0 mm
06:45 PM 45.0°F7.2°C 23.8°F-4.6°C 43% 2.3 mph WNW3.7 kmh WNW 3.5 mph5.6 kmh 26.48 in896.7 mb - 0.00 in0.0 mm 0.00 in0.0 mm
06:50 PM 45.9°F7.7°C 24.7°F-4.1°C 43% 1.2 mph NW1.9 kmh NW 3.5 mph5.6 kmh 26.48 in896.7 mb - 0.00 in0.0 mm 0.00 in0.0 mm
06:55 PM 45.0°F7.2°C 24.4°F-4.2°C 44% 3.5 mph SE5.6 kmh SE 3.5 mph5.6 kmh 26.48 in896.7 mb - 0.00 in0.0 mm 0.00 in0.0 mm
07:00 PM 45.0°F7.2°C 24.9°F-3.9°C 45% Calm Calm -- 26.48 in896.7 mb - 0.00 in0.0 mm 0.00 in0.0 mm
07:10 PM 45.0°F7.2°C 25.4°F-3.7°C 46% 1.2 mph NNW1.9 kmh NNW 2.3 mph3.7 kmh 26.48 in896.7 mb - 0.00 in0.0 mm 0.00 in0.0 mm
07:15 PM 45.0°F7.2°C 25.4°F-3.7°C 46% Calm Calm 1.2 mph1.9 kmh 26.49 in897.1 mb - 0.00 in0.0 mm 0.00 in0.0 mm
07:20 PM 45.0°F7.2°C 25.4°F-3.7°C 46% 1.2 mph NNW1.9 kmh NNW 2.3 mph3.7 kmh 26.48 in896.7 mb - 0.00 in0.0 mm 0.00 in0.0 mm
07:25 PM 45.0°F7.2°C 25.4°F-3.7°C 46% 1.2 mph N1.9 kmh N 1.2 mph1.9 kmh 26.49 in897.1 mb - 0.00 in0.0 mm 0.00 in0.0 mm
07:30 PM 45.0°F7.2°C 25.4°F-3.7°C 46% Calm Calm 1.2 mph1.9 kmh 26.49 in897.1 mb - 0.00 in0.0 mm 0.00 in0.0 mm
07:35 PM 45.0°F7.2°C 25.4°F-3.7°C 46% Calm Calm -- 26.49 in897.1 mb - 0.00 in0.0 mm 0.00 in0.0 mm
07:40 PM 44.0°F6.7°C 24.5°F-4.2°C 46% Calm Calm -- 26.49 in897.1 mb - 0.00 in0.0 mm 0.00 in0.0 mm
07:45 PM 44.0°F6.7°C 25.0°F-3.9°C 47% Calm Calm -- 26.50 in897.4 mb - 0.00 in0.0 mm 0.00 in0.0 mm
07:50 PM 44.0°F6.7°C 23.5°F-4.7°C 44% 1.2 mph N1.9 kmh N 2.3 mph3.7 kmh 26.50 in897.4 mb - 0.00 in0.0 mm 0.00 in0.0 mm
07:55 PM 45.0°F7.2°C 24.9°F-3.9°C 45% Calm Calm -- 26.49 in897.1 mb - 0.00 in0.0 mm 0.00 in0.0 mm
08:00 PM 45.0°F7.2°C 23.8°F-4.6°C 43% 1.2 mph N1.9 kmh N 2.3 mph3.7 kmh 26.49 in897.1 mb - 0.00 in0.0 mm 0.00 in0.0 mm
08:10 PM 44.0°F6.7°C 24.0°F-4.4°C 45% Calm Calm 1.2 mph1.9 kmh 26.50 in897.4 mb - 0.00 in0.0 mm 0.00 in0.0 mm
08:15 PM 44.0°F6.7°C 23.5°F-4.7°C 44% Calm Calm -- 26.49 in897.1 mb - 0.00 in0.0 mm 0.00 in0.0 mm
08:20 PM 44.0°F6.7°C 24.5°F-4.2°C 46% Calm Calm -- 26.51 in897.7 mb - 0.00 in0.0 mm 0.00 in0.0 mm
08:25 PM 44.0°F6.7°C 24.0°F-4.4°C 45% 1.2 mph NW1.9 kmh NW 1.2 mph1.9 kmh 26.50 in897.4 mb - 0.00 in0.0 mm 0.00 in0.0 mm
08:30 PM 44.0°F6.7°C 24.5°F-4.2°C 46% Calm Calm 2.3 mph3.7 kmh 26.50 in897.4 mb - 0.00 in0.0 mm 0.00 in0.0 mm
08:35 PM 44.0°F6.7°C 23.5°F-4.7°C 44% 2.3 mph W3.7 kmh W 3.5 mph5.6 kmh 26.50 in897.4 mb - 0.00 in0.0 mm 0.00 in0.0 mm
08:40 PM 44.0°F6.7°C 22.9°F-5.1°C 43% Calm Calm 1.2 mph1.9 kmh 26.50 in897.4 mb - 0.00 in0.0 mm 0.00 in0.0 mm
08:45 PM 44.0°F6.7°C 22.9°F-5.1°C 43% 1.2 mph NNW1.9 kmh NNW 2.3 mph3.7 kmh 26.50 in897.4 mb - 0.00 in0.0 mm 0.00 in0.0 mm
08:50 PM 44.4°F6.9°C 22.7°F-5.2°C 42% 1.2 mph NE1.9 kmh NE 2.3 mph3.7 kmh 26.51 in897.7 mb - 0.00 in0.0 mm 0.00 in0.0 mm
08:55 PM 45.0°F7.2°C 23.3°F-4.8°C 42% 1.2 mph NW1.9 kmh NW 2.3 mph3.7 kmh 26.50 in897.4 mb - 0.00 in0.0 mm 0.00 in0.0 mm
09:00 PM 44.0°F6.7°C 22.9°F-5.1°C 43% 3.5 mph WNW5.6 kmh WNW 3.5 mph5.6 kmh 26.50 in897.4 mb - 0.00 in0.0 mm 0.00 in0.0 mm
09:10 PM 45.0°F7.2°C 22.7°F-5.2°C 41% 3.5 mph W5.6 kmh W 5.8 mph9.3 kmh 26.50 in897.4 mb - 0.00 in0.0 mm 0.00 in0.0 mm
09:15 PM 45.0°F7.2°C 23.3°F-4.8°C 42% Calm Calm 3.5 mph5.6 kmh 26.51 in897.7 mb - 0.00 in0.0 mm 0.00 in0.0 mm
09:20 PM 45.0°F7.2°C 23.8°F-4.6°C 43% 2.3 mph NW3.7 kmh NW 2.3 mph3.7 kmh 26.50 in897.4 mb - 0.00 in0.0 mm 0.00 in0.0 mm
09:25 PM 45.0°F7.2°C 23.8°F-4.6°C 43% Calm Calm -- 26.51 in897.7 mb - 0.00 in0.0 mm 0.00 in0.0 mm
09:30 PM 44.0°F6.7°C 22.9°F-5.1°C 43% 1.2 mph NNW1.9 kmh NNW 2.3 mph3.7 kmh 26.51 in897.7 mb - 0.00 in0.0 mm 0.00 in0.0 mm
09:35 PM 44.0°F6.7°C 22.9°F-5.1°C 43% 1.2 mph NW1.9 kmh NW 2.3 mph3.7 kmh 26.51 in897.7 mb - 0.00 in0.0 mm 0.00 in0.0 mm
09:40 PM 44.0°F6.7°C 22.9°F-5.1°C 43% 2.3 mph NW3.7 kmh NW 2.3 mph3.7 kmh 26.51 in897.7 mb - 0.00 in0.0 mm 0.00 in0.0 mm
09:45 PM 44.0°F6.7°C 22.9°F-5.1°C 43% 1.2 mph NW1.9 kmh NW 1.2 mph1.9 kmh 26.51 in897.7 mb - 0.00 in0.0 mm 0.00 in0.0 mm
09:50 PM 44.0°F6.7°C 22.9°F-5.1°C 43% Calm Calm 1.2 mph1.9 kmh 26.51 in897.7 mb - 0.00 in0.0 mm 0.00 in0.0 mm
09:55 PM 44.4°F6.9°C 23.3°F-4.8°C 43% 2.3 mph NW3.7 kmh NW 3.5 mph5.6 kmh 26.51 in897.7 mb - 0.00 in0.0 mm 0.00 in0.0 mm
10:00 PM 45.0°F7.2°C 23.8°F-4.6°C 43% 1.2 mph NW1.9 kmh NW 1.2 mph1.9 kmh 26.51 in897.7 mb - 0.00 in0.0 mm 0.00 in0.0 mm
10:10 PM 44.0°F6.7°C 22.9°F-5.1°C 43% Calm Calm -- 26.52 in898.1 mb - 0.00 in0.0 mm 0.00 in0.0 mm
10:15 PM 44.0°F6.7°C 22.9°F-5.1°C 43% 2.3 mph WNW3.7 kmh WNW 3.5 mph5.6 kmh 26.52 in898.1 mb - 0.00 in0.0 mm 0.00 in0.0 mm
10:20 PM 44.0°F6.7°C 22.9°F-5.1°C 43% 1.2 mph NNW1.9 kmh NNW 1.2 mph1.9 kmh 26.52 in898.1 mb - 0.00 in0.0 mm 0.00 in0.0 mm
10:25 PM 44.0°F6.7°C 22.9°F-5.1°C 43% 1.2 mph NNW1.9 kmh NNW 1.2 mph1.9 kmh 26.52 in898.1 mb - 0.00 in0.0 mm 0.00 in0.0 mm
10:30 PM 44.0°F6.7°C 22.4°F-5.3°C 42% 1.2 mph NW1.9 kmh NW 2.3 mph3.7 kmh 26.53 in898.4 mb - 0.00 in0.0 mm 0.00 in0.0 mm
10:35 PM 44.0°F6.7°C 22.4°F-5.3°C 42% Calm Calm 1.2 mph1.9 kmh 26.52 in898.1 mb - 0.00 in0.0 mm 0.00 in0.0 mm
10:40 PM 44.0°F6.7°C 21.8°F-5.7°C 41% 1.2 mph NNW1.9 kmh NNW 1.2 mph1.9 kmh 26.53 in898.4 mb - 0.00 in0.0 mm 0.00 in0.0 mm
10:45 PM 44.0°F6.7°C 20.6°F-6.3°C 39% Calm Calm 1.2 mph1.9 kmh 26.53 in898.4 mb - 0.00 in0.0 mm 0.00 in0.0 mm
10:50 PM 44.0°F6.7°C 20.6°F-6.3°C 39% 1.2 mph NNE1.9 kmh NNE 2.3 mph3.7 kmh 26.53 in898.4 mb - 0.00 in0.0 mm 0.00 in0.0 mm
10:55 PM 44.0°F6.7°C 20.6°F-6.3°C 39% Calm Calm -- 26.53 in898.4 mb - 0.00 in0.0 mm 0.00 in0.0 mm
11:00 PM 44.0°F6.7°C 20.6°F-6.3°C 39% 3.5 mph W5.6 kmh W 3.5 mph5.6 kmh 26.52 in898.1 mb - 0.00 in0.0 mm 0.00 in0.0 mm
11:10 PM 44.0°F6.7°C 20.6°F-6.3°C 39% 1.2 mph NW1.9 kmh NW 1.2 mph1.9 kmh 26.53 in898.4 mb - 0.00 in0.0 mm 0.00 in0.0 mm
11:15 PM 44.0°F6.7°C 20.6°F-6.3°C 39% 1.2 mph NW1.9 kmh NW 2.3 mph3.7 kmh 26.53 in898.4 mb - 0.00 in0.0 mm 0.00 in0.0 mm
11:20 PM 44.0°F6.7°C 21.2°F-6.0°C 40% Calm Calm 1.2 mph1.9 kmh 26.53 in898.4 mb - 0.00 in0.0 mm 0.00 in0.0 mm
11:25 PM 44.0°F6.7°C 20.6°F-6.3°C 39% Calm Calm 1.2 mph1.9 kmh 26.54 in898.7 mb - 0.00 in0.0 mm 0.00 in0.0 mm
11:30 PM 44.0°F6.7°C 21.2°F-6.0°C 40% 1.2 mph NE1.9 kmh NE 2.3 mph3.7 kmh 26.53 in898.4 mb - 0.00 in0.0 mm 0.00 in0.0 mm
11:35 PM 44.4°F6.9°C 21.0°F-6.1°C 39% 1.2 mph NNE1.9 kmh NNE 2.3 mph3.7 kmh 26.54 in898.7 mb - 0.00 in0.0 mm 0.00 in0.0 mm
11:40 PM 44.0°F6.7°C 21.8°F-5.7°C 41% Calm Calm -- 26.54 in898.7 mb - 0.00 in0.0 mm 0.00 in0.0 mm
11:45 PM 44.0°F6.7°C 21.2°F-6.0°C 40% Calm Calm 1.2 mph1.9 kmh 26.54 in898.7 mb - 0.00 in0.0 mm 0.00 in0.0 mm
11:50 PM 44.0°F6.7°C 21.8°F-5.7°C 41% 1.2 mph WNW1.9 kmh WNW 3.5 mph5.6 kmh 26.54 in898.7 mb - 0.00 in0.0 mm 0.00 in0.0 mm
11:55 PM 44.0°F6.7°C 21.8°F-5.7°C 41% Calm Calm -- 26.54 in898.7 mb - 0.00 in0.0 mm 0.00 in0.0 mm